Time;durP1;ratioP1;P1;durP2;ratioP2;P2;SDS_P1;SDS_P2;PMS_P1;PMS_P2;Temp;Humidity;BMP_temperature;BMP_pressure;BME280_temperature;BME280_humidity;BME280_pressure;Samples;Min_cycle;Max_cycle;Signal;HPM_P1;HPM_P2
2023/11/16 00:01:01;;;;;;;3.13;0.90;;;22.20;93.50;;;;;;5020424;28;20465;-62
2023/11/16 00:03:28;;;;;;;3.53;1.50;;;22.20;93.50;;;;;;5026870;28;20461;-63
2023/11/16 00:05:55;;;;;;;1.83;1.20;;;22.10;93.50;;;;;;5011661;28;20469;-62
2023/11/16 00:08:21;;;;;;;2.20;1.40;;;22.10;93.50;;;;;;5016515;28;20458;-67
2023/11/16 00:10:48;;;;;;;1.93;1.10;;;22.10;93.50;;;;;;5010607;28;20496;-72
2023/11/16 00:13:16;;;;;;;2.43;1.10;;;22.20;93.70;;;;;;5011822;28;21056;-68
2023/11/16 00:15:43;;;;;;;2.30;1.10;;;22.00;93.50;;;;;;5008185;28;20466;-69
2023/11/16 00:18:10;;;;;;;1.77;0.80;;;22.10;93.60;;;;;;5009430;28;20488;-70
2023/11/16 00:20:36;;;;;;;2.17;1.00;;;22.10;93.50;;;;;;5011029;28;20466;-68
2023/11/16 00:23:04;;;;;;;1.70;1.00;;;22.10;93.50;;;;;;5017960;28;20458;-70
2023/11/16 00:25:31;;;;;;;1.30;0.90;;;22.00;93.50;;;;;;5021343;28;20455;-70
2023/11/16 00:27:59;;;;;;;1.40;1.20;;;22.00;93.80;;;;;;5014974;28;20458;-72
2023/11/16 00:30:27;;;;;;;1.40;1.17;;;22.00;93.50;;;;;;5015594;28;20536;-71
2023/11/16 00:32:54;;;;;;;1.87;1.07;;;22.00;93.50;;;;;;5017484;28;20459;-71
2023/11/16 00:35:21;;;;;;;1.90;1.13;;;22.00;93.50;;;;;;5011904;28;20458;-71
2023/11/16 00:37:50;;;;;;;1.83;1.33;;;22.00;93.40;;;;;;5010925;28;21080;-70
2023/11/16 00:40:17;;;;;;;2.20;1.07;;;22.00;93.50;;;;;;5014548;28;20561;-70
2023/11/16 00:42:44;;;;;;;2.27;0.90;;;22.00;93.50;;;;;;5007790;28;21052;-70
2023/11/16 00:45:11;;;;;;;1.20;1.00;;;22.10;93.50;;;;;;5006210;28;20469;-72
2023/11/16 00:47:39;;;;;;;3.50;1.10;;;22.00;93.50;;;;;;5006873;28;20471;-73
2023/11/16 00:50:08;;;;;;;4.07;1.30;;;22.00;93.40;;;;;;5011927;28;20936;-72
2023/11/16 00:52:35;;;;;;;2.57;1.37;;;21.90;93.40;;;;;;5007424;28;20462;-72
2023/11/16 00:55:04;;;;;;;2.73;1.10;;;22.00;93.40;;;;;;5009274;28;20466;-73
2023/11/16 00:57:31;;;;;;;1.20;1.10;;;22.00;93.40;;;;;;5010794;28;20482;-72
2023/11/16 00:59:58;;;;;;;1.70;1.10;;;22.00;93.50;;;;;;5011626;28;20458;-71
2023/11/16 01:02:25;;;;;;;3.33;1.57;;;21.90;93.40;;;;;;5012001;28;20477;-70
2023/11/16 01:04:53;;;;;;;2.47;0.90;;;21.90;93.40;;;;;;5012204;28;20549;-66
2023/11/16 01:07:20;;;;;;;1.70;1.20;;;22.00;93.50;;;;;;5009320;28;20554;-68
2023/11/16 01:09:47;;;;;;;2.07;1.20;;;21.90;93.40;;;;;;5012755;28;20468;-69
2023/11/16 01:12:15;;;;;;;2.17;1.00;;;21.80;93.40;;;;;;5010782;28;21002;-70
2023/11/16 01:14:42;;;;;;;1.30;1.07;;;21.90;93.60;;;;;;5012481;28;20460;-68
2023/11/16 01:17:18;;;;;;;1.20;1.10;;;21.80;93.60;;;;;;5011154;28;20720;-74
2023/11/16 01:19:46;;;;;;;2.17;1.13;;;21.80;93.60;;;;;;5012851;28;20522;-70
2023/11/16 01:22:16;;;;;;;1.43;1.20;;;21.80;93.60;;;;;;5011027;28;20466;-72
2023/11/16 01:24:45;;;;;;;1.70;0.97;;;21.80;93.60;;;;;;5015206;28;20467;-71
2023/11/16 01:27:19;;;;;;;1.90;1.10;;;21.80;93.60;;;;;;5017298;28;20489;-72
2023/11/16 01:29:46;;;;;;;2.20;0.97;;;21.80;93.60;;;;;;5013153;28;20461;-70
2023/11/16 01:32:13;;;;;;;1.67;1.13;;;21.80;93.60;;;;;;5013582;28;20462;-70
2023/11/16 01:34:42;;;;;;;1.30;0.90;;;21.80;93.60;;;;;;5016659;28;21054;-74
2023/11/16 01:37:10;;;;;;;1.50;1.20;;;21.80;93.60;;;;;;5013836;28;20880;-68
2023/11/16 01:39:39;;;;;;;1.20;1.10;;;21.70;93.60;;;;;;5016714;28;20465;-73
2023/11/16 01:42:09;;;;;;;1.43;1.17;;;21.70;93.60;;;;;;5017585;28;21193;-71
2023/11/16 01:44:36;;;;;;;1.30;1.07;;;21.70;93.60;;;;;;5014546;28;20478;-71
2023/11/16 01:47:05;;;;;;;1.30;0.93;;;21.70;93.60;;;;;;5017384;28;20466;-73
2023/11/16 01:49:32;;;;;;;1.37;0.90;;;21.70;93.60;;;;;;5014396;28;20868;-70
2023/11/16 01:51:59;;;;;;;1.30;1.10;;;21.70;93.60;;;;;;5017762;28;20453;-72
2023/11/16 01:54:26;;;;;;;1.30;1.10;;;21.60;93.60;;;;;;5016718;28;21110;-71
2023/11/16 01:56:55;;;;;;;1.60;1.10;;;21.70;93.60;;;;;;5009932;28;20481;-71
2023/11/16 01:59:22;;;;;;;1.90;1.00;;;21.60;93.60;;;;;;5018726;28;20541;-73
2023/11/16 02:01:49;;;;;;;1.47;1.37;;;21.60;93.60;;;;;;5009036;28;20474;-68
2023/11/16 02:04:16;;;;;;;1.80;1.00;;;21.60;93.60;;;;;;5015100;28;20469;-71
2023/11/16 02:06:43;;;;;;;1.10;1.00;;;21.60;93.70;;;;;;5013105;28;20469;-73
2023/11/16 02:09:11;;;;;;;2.30;0.90;;;21.60;93.70;;;;;;5009682;28;20466;-74
2023/11/16 02:11:37;;;;;;;1.37;1.17;;;21.50;93.60;;;;;;5011347;28;20460;-68
2023/11/16 02:14:05;;;;;;;1.53;0.97;;;21.50;93.60;;;;;;5004414;28;20464;-70
2023/11/16 02:16:32;;;;;;;2.50;1.17;;;21.50;93.70;;;;;;5012014;28;20468;-69
2023/11/16 02:19:05;;;;;;;1.60;0.90;;;21.50;93.70;;;;;;5014049;28;20470;-69
2023/11/16 02:21:38;;;;;;;1.10;0.90;;;21.50;93.70;;;;;;5014081;28;20982;-74
2023/11/16 02:24:08;;;;;;;1.00;0.90;;;21.50;93.70;;;;;;5014147;28;20549;-70
2023/11/16 02:26:35;;;;;;;1.00;0.80;;;21.50;93.80;;;;;;5015049;28;20537;-70
2023/11/16 02:29:04;;;;;;;1.60;1.50;;;21.50;94.20;;;;;;5016439;28;20525;-73
2023/11/16 02:31:30;;;;;;;1.37;0.93;;;21.40;93.80;;;;;;5017761;28;20474;-69
2023/11/16 02:33:57;;;;;;;1.40;1.03;;;21.50;93.90;;;;;;5008312;28;20462;-70
2023/11/16 02:36:24;;;;;;;1.50;1.00;;;21.40;93.80;;;;;;5008042;28;20462;-74
2023/11/16 02:38:51;;;;;;;2.53;1.60;;;21.40;93.80;;;;;;5009058;28;20485;-68
2023/11/16 02:41:19;;;;;;;1.00;0.80;;;21.40;93.80;;;;;;5013684;28;20458;-73
2023/11/16 02:43:48;;;;;;;2.10;1.00;;;21.40;93.80;;;;;;5008850;28;20462;-71
2023/11/16 02:46:17;;;;;;;1.40;1.00;;;21.40;93.80;;;;;;5012824;28;20195;-74
2023/11/16 02:48:44;;;;;;;1.60;0.90;;;21.40;93.80;;;;;;5009334;28;20458;-74
2023/11/16 02:51:10;;;;;;;1.67;1.00;;;21.40;93.80;;;;;;5012140;28;20466;-71
2023/11/16 02:53:37;;;;;;;1.80;1.23;;;21.40;93.90;;;;;;5014916;28;20479;-70
2023/11/16 02:56:04;;;;;;;2.07;1.20;;;21.40;93.80;;;;;;5008199;28;20455;-67
2023/11/16 02:58:33;;;;;;;1.30;0.97;;;21.40;93.80;;;;;;5010465;28;20485;-68
2023/11/16 03:01:00;;;;;;;2.33;1.00;;;21.40;93.90;;;;;;5009272;28;21345;-67
2023/11/16 03:03:27;;;;;;;1.10;0.90;;;21.50;93.90;;;;;;5012142;28;20480;-71
2023/11/16 03:05:53;;;;;;;1.60;0.87;;;21.30;93.80;;;;;;5007363;28;20481;-73
2023/11/16 03:08:20;;;;;;;1.57;1.00;;;21.30;93.80;;;;;;5008293;28;20815;-73
2023/11/16 03:10:48;;;;;;;1.47;1.00;;;21.30;93.80;;;;;;5011758;28;20827;-68
2023/11/16 03:13:16;;;;;;;1.47;0.90;;;21.30;93.80;;;;;;5015115;28;20458;-69
2023/11/16 03:15:44;;;;;;;1.23;1.00;;;21.30;93.80;;;;;;5011426;28;20612;-74
2023/11/16 03:18:14;;;;;;;1.40;1.00;;;21.30;93.90;;;;;;5009963;28;20218;-72
2023/11/16 03:20:41;;;;;;;1.20;0.90;;;21.30;93.90;;;;;;5012987;28;20888;-70
2023/11/16 03:23:07;;;;;;;1.20;0.97;;;21.20;93.90;;;;;;5012775;28;20836;-69
2023/11/16 03:25:35;;;;;;;1.50;1.05;;;21.20;93.80;;;;;;5009638;28;20474;-72
2023/11/16 03:28:03;;;;;;;1.40;0.93;;;21.20;93.90;;;;;;5016166;28;20692;-71
2023/11/16 03:30:30;;;;;;;1.00;0.90;;;21.20;94.00;;;;;;5014353;28;20458;-69
2023/11/16 03:32:58;;;;;;;2.00;0.90;;;21.20;94.00;;;;;;5014017;28;21076;-73
2023/11/16 03:35:24;;;;;;;1.30;0.90;;;21.20;94.40;;;;;;5015518;28;21021;-71
2023/11/16 03:37:53;;;;;;;1.33;0.97;;;21.20;94.00;;;;;;5010432;28;20473;-67
2023/11/16 03:40:19;;;;;;;2.53;1.10;;;21.20;94.10;;;;;;5010948;28;20462;-72
2023/11/16 03:42:46;;;;;;;1.38;0.82;;;21.20;94.10;;;;;;5017050;28;20961;-70
2023/11/16 03:45:13;;;;;;;1.03;0.80;;;21.20;94.00;;;;;;5016026;28;20206;-67
2023/11/16 03:47:40;;;;;;;1.90;0.95;;;21.20;94.10;;;;;;5016181;28;20461;-67
2023/11/16 03:50:10;;;;;;;1.57;0.93;;;21.20;94.10;;;;;;5011679;28;20207;-73
2023/11/16 03:52:37;;;;;;;1.30;1.07;;;21.10;94.00;;;;;;5016999;28;20645;-69
2023/11/16 03:55:04;;;;;;;1.55;1.00;;;21.10;94.00;;;;;;5017376;28;20500;-74
2023/11/16 03:57:31;;;;;;;1.10;1.00;;;21.10;94.00;;;;;;5017499;28;20203;-68
2023/11/16 03:59:58;;;;;;;2.20;1.13;;;21.10;94.00;;;;;;5014124;28;20486;-74
2023/11/16 04:02:25;;;;;;;1.10;0.93;;;21.10;94.00;;;;;;5015708;28;20514;-73
2023/11/16 04:04:51;;;;;;;1.03;0.93;;;21.10;94.00;;;;;;5018250;28;20533;-71
2023/11/16 04:07:19;;;;;;;2.17;1.00;;;21.10;94.00;;;;;;5014444;28;20463;-67
2023/11/16 04:09:46;;;;;;;1.60;1.03;;;21.10;94.10;;;;;;5014924;28;20482;-73
2023/11/16 04:12:13;;;;;;;1.20;0.90;;;21.10;94.10;;;;;;5018504;28;20465;-69
2023/11/16 04:14:40;;;;;;;1.00;0.85;;;21.00;94.00;;;;;;5016115;28;20199;-69
2023/11/16 04:17:09;;;;;;;1.83;1.00;;;21.00;94.00;;;;;;5003171;28;21005;-70
2023/11/16 04:19:36;;;;;;;1.30;0.77;;;21.00;94.10;;;;;;5020039;28;20495;-68
2023/11/16 04:22:06;;;;;;;1.83;1.00;;;21.00;94.10;;;;;;5013233;28;20192;-74
2023/11/16 04:24:39;;;;;;;1.35;0.82;;;21.00;94.00;;;;;;5009709;28;20508;-69
2023/11/16 04:27:06;;;;;;;1.20;0.90;;;21.00;94.10;;;;;;5015210;28;20200;-69
2023/11/16 04:29:33;;;;;;;1.30;1.10;;;21.00;94.10;;;;;;5016646;28;20290;-68
2023/11/16 04:32:01;;;;;;;1.70;1.10;;;21.00;94.10;;;;;;5013188;28;20478;-74
2023/11/16 04:34:28;;;;;;;1.50;0.90;;;21.00;94.20;;;;;;5015704;28;20982;-69
2023/11/16 04:36:56;;;;;;;1.17;0.80;;;21.00;94.20;;;;;;5013579;28;20299;-74
2023/11/16 04:39:23;;;;;;;1.63;0.88;;;21.00;94.20;;;;;;5015201;28;20302;-72
2023/11/16 04:41:51;;;;;;;1.13;0.90;;;21.00;94.20;;;;;;5019887;28;23201;-72
2023/11/16 04:44:17;;;;;;;1.10;0.90;;;21.00;94.20;;;;;;5016019;28;20564;-72
2023/11/16 04:46:46;;;;;;;1.40;1.08;;;20.90;94.10;;;;;;5009107;28;20471;-71
2023/11/16 04:49:13;;;;;;;1.10;0.90;;;21.00;94.30;;;;;;5010862;28;20719;-74
2023/11/16 04:51:40;;;;;;;1.55;1.00;;;21.00;94.30;;;;;;5015808;28;20196;-71
2023/11/16 04:54:08;;;;;;;1.52;1.05;;;21.00;94.20;;;;;;5002006;28;20215;-68
2023/11/16 04:56:36;;;;;;;1.30;1.00;;;21.00;94.20;;;;;;5011872;28;20199;-72
2023/11/16 04:59:05;;;;;;;2.00;1.10;;;20.90;94.20;;;;;;5013322;28;20482;-74
2023/11/16 05:01:32;;;;;;;1.40;1.07;;;20.90;94.20;;;;;;5010108;28;20216;-69
2023/11/16 05:03:59;;;;;;;1.38;0.90;;;20.90;94.10;;;;;;5011744;28;20816;-70
2023/11/16 05:06:25;;;;;;;1.30;1.08;;;20.90;94.10;;;;;;5010620;28;20624;-73
2023/11/16 05:08:52;;;;;;;1.17;1.02;;;20.90;94.20;;;;;;5007405;28;20220;-71
2023/11/16 05:11:22;;;;;;;1.10;0.87;;;20.90;94.10;;;;;;5013850;28;20195;-73
2023/11/16 05:13:49;;;;;;;1.20;1.00;;;20.90;94.20;;;;;;5011445;28;20536;-74
2023/11/16 05:16:17;;;;;;;1.23;0.90;;;20.90;94.20;;;;;;5011066;28;21004;-71
2023/11/16 05:18:44;;;;;;;1.10;0.85;;;20.90;94.20;;;;;;5009909;28;20956;-72
2023/11/16 05:21:12;;;;;;;1.65;1.00;;;20.90;94.30;;;;;;5009673;28;20200;-70
2023/11/16 05:23:38;;;;;;;1.48;1.15;;;20.90;94.30;;;;;;5009733;28;20234;-69
2023/11/16 05:26:07;;;;;;;1.23;1.05;;;21.00;94.30;;;;;;5011853;28;20814;-73
2023/11/16 05:28:34;;;;;;;1.17;1.00;;;20.80;94.20;;;;;;5014709;28;20192;-70
2023/11/16 05:31:01;;;;;;;1.05;0.90;;;20.80;94.30;;;;;;5007317;28;20214;-70
2023/11/16 05:33:30;;;;;;;1.33;0.80;;;20.90;94.30;;;;;;5015237;28;20227;-71
2023/11/16 05:35:57;;;;;;;1.17;1.00;;;20.90;94.40;;;;;;5010248;28;20312;-71
2023/11/16 05:38:23;;;;;;;1.00;0.90;;;20.80;94.40;;;;;;5011025;28;20462;-72
2023/11/16 05:40:51;;;;;;;1.30;1.00;;;20.90;94.40;;;;;;5012146;28;20191;-71
2023/11/16 05:43:18;;;;;;;2.13;0.90;;;20.80;94.40;;;;;;5013045;28;20886;-69
2023/11/16 05:45:45;;;;;;;1.20;0.90;;;20.80;94.30;;;;;;5014342;28;20198;-72
2023/11/16 05:48:12;;;;;;;1.15;0.88;;;20.80;94.30;;;;;;5009434;28;20462;-72
2023/11/16 05:50:40;;;;;;;1.20;1.10;;;20.80;94.30;;;;;;5012244;28;20579;-72
2023/11/16 05:53:09;;;;;;;1.10;0.80;;;20.80;94.40;;;;;;5009870;28;20684;-73
2023/11/16 05:55:36;;;;;;;1.27;0.88;;;20.80;94.30;;;;;;5012636;28;20473;-67
2023/11/16 05:58:04;;;;;;;1.10;0.90;;;20.80;94.30;;;;;;5014667;28;20694;-70
2023/11/16 06:00:31;;;;;;;3.05;1.02;;;20.80;94.30;;;;;;5014834;28;20741;-67
2023/11/16 06:02:58;;;;;;;1.05;0.80;;;20.80;94.30;;;;;;5015621;28;20203;-69
2023/11/16 06:05:25;;;;;;;1.17;0.90;;;20.80;94.30;;;;;;5015911;28;20195;-67
2023/11/16 06:07:53;;;;;;;1.38;0.98;;;20.80;94.30;;;;;;5014899;28;20204;-63
2023/11/16 06:10:19;;;;;;;1.73;0.95;;;20.80;94.40;;;;;;5015969;28;20203;-63
2023/11/16 06:12:47;;;;;;;2.00;1.00;;;20.80;94.40;;;;;;5015322;28;20195;-63
2023/11/16 06:15:15;;;;;;;1.50;1.00;;;20.80;94.40;;;;;;5015695;28;20719;-63
2023/11/16 06:17:42;;;;;;;2.00;0.90;;;20.80;94.40;;;;;;5012128;28;20197;-64
2023/11/16 06:20:11;;;;;;;1.73;0.82;;;20.80;94.40;;;;;;5006832;28;20703;-63
2023/11/16 06:22:37;;;;;;;2.10;0.82;;;20.80;94.40;;;;;;5011886;28;20195;-63
2023/11/16 06:25:07;;;;;;;1.33;1.08;;;20.80;94.50;;;;;;5006963;28;20492;-63
2023/11/16 06:27:35;;;;;;;1.80;0.90;;;20.80;94.60;;;;;;5003404;28;20286;-63
2023/11/16 06:30:01;;;;;;;2.50;1.10;;;20.80;94.60;;;;;;5006250;28;20203;-64
2023/11/16 06:32:28;;;;;;;1.08;0.75;;;20.70;94.50;;;;;;5003180;28;20234;-64
2023/11/16 06:34:55;;;;;;;1.63;1.00;;;20.70;94.40;;;;;;5016035;28;20196;-62
2023/11/16 06:37:22;;;;;;;1.10;0.90;;;20.80;94.60;;;;;;5010913;28;20314;-64
2023/11/16 06:39:49;;;;;;;1.30;1.05;;;20.70;94.50;;;;;;5013783;28;20714;-64
2023/11/16 06:42:17;;;;;;;1.10;0.88;;;20.70;94.50;;;;;;5015285;28;20219;-64
2023/11/16 06:44:48;;;;;;;1.00;0.90;;;20.70;94.50;;;;;;5008451;28;20207;-62
2023/11/16 06:47:17;;;;;;;1.20;0.73;;;20.70;94.50;;;;;;5016359;28;20207;-62
2023/11/16 06:49:44;;;;;;;1.45;1.15;;;20.70;94.50;;;;;;5015878;28;20941;-64
2023/11/16 06:52:14;;;;;;;1.50;1.23;;;20.70;94.50;;;;;;5018665;28;20204;-63
2023/11/16 06:54:42;;;;;;;1.90;0.90;;;20.70;94.50;;;;;;5020853;28;20204;-63
2023/11/16 06:57:09;;;;;;;1.13;0.77;;;20.70;94.50;;;;;;5010580;28;20296;-63
2023/11/16 06:59:37;;;;;;;1.30;0.90;;;20.70;94.50;;;;;;5003875;28;20227;-65
2023/11/16 07:02:07;;;;;;;1.20;0.70;;;20.70;94.50;;;;;;5012886;28;20205;-64
2023/11/16 07:04:35;;;;;;;1.20;1.00;;;20.70;94.60;;;;;;5009341;28;20463;-64
2023/11/16 07:07:03;;;;;;;1.20;1.00;;;20.70;94.80;;;;;;5010173;28;20577;-66
2023/11/16 07:09:30;;;;;;;1.40;0.90;;;20.70;94.80;;;;;;5013761;28;20207;-63
2023/11/16 07:11:57;;;;;;;1.47;1.00;;;20.70;94.90;;;;;;5004590;28;20454;-62
2023/11/16 07:14:24;;;;;;;1.30;0.88;;;20.70;95.00;;;;;;5008394;28;20457;-61
2023/11/16 07:16:53;;;;;;;0.98;0.80;;;20.80;95.10;;;;;;5001540;28;20664;-65
2023/11/16 07:19:20;;;;;;;1.73;0.90;;;20.70;95.10;;;;;;5008346;28;20241;-63
2023/11/16 07:21:47;;;;;;;1.27;0.90;;;20.80;95.10;;;;;;5003732;28;20214;-61
2023/11/16 07:24:13;;;;;;;1.05;0.90;;;20.80;95.20;;;;;;5010683;28;20251;-62
2023/11/16 07:26:40;;;;;;;1.53;1.00;;;20.80;95.20;;;;;;5010877;28;20260;-61
2023/11/16 07:29:08;;;;;;;1.33;1.08;;;20.80;95.20;;;;;;5007567;28;20862;-65
2023/11/16 07:31:35;;;;;;;1.10;0.80;;;20.90;95.30;;;;;;5007978;28;20678;-66
2023/11/16 07:34:03;;;;;;;1.13;0.80;;;20.90;95.40;;;;;;5003432;28;20470;-63
2023/11/16 07:36:31;;;;;;;1.00;0.90;;;20.90;95.70;;;;;;5002964;28;20480;-63
2023/11/16 07:38:58;;;;;;;1.23;1.10;;;20.90;95.50;;;;;;5004447;28;20805;-61
2023/11/16 07:41:30;;;;;;;1.20;0.80;;;21.00;95.60;;;;;;5006336;28;20478;-60
2023/11/16 07:43:57;;;;;;;1.73;0.87;;;21.00;95.60;;;;;;5008625;28;20461;-62
2023/11/16 07:46:24;;;;;;;1.10;1.00;;;21.10;95.60;;;;;;5006158;28;20896;-62
2023/11/16 07:48:51;;;;;;;1.35;0.88;;;21.10;95.60;;;;;;5008320;28;20655;-62
2023/11/16 07:51:20;;;;;;;1.20;0.90;;;21.10;95.60;;;;;;5008881;28;20234;-61
2023/11/16 07:53:53;;;;;;;1.10;0.80;;;21.10;95.50;;;;;;5008742;28;20464;-61
2023/11/16 07:56:20;;;;;;;2.93;1.10;;;21.20;95.50;;;;;;5005282;28;20462;-62
2023/11/16 07:58:49;;;;;;;3.10;0.80;;;21.20;95.40;;;;;;5005456;28;21123;-64
2023/11/16 08:01:21;;;;;;;3.47;1.00;;;21.30;95.40;;;;;;4999330;28;20832;-65
2023/11/16 08:03:55;;;;;;;1.93;0.87;;;21.30;95.40;;;;;;5012213;28;20462;-65
2023/11/16 08:06:25;;;;;;;2.17;1.10;;;21.30;95.30;;;;;;5015710;28;20493;-65
2023/11/16 08:08:52;;;;;;;1.70;1.20;;;21.40;95.30;;;;;;5016719;28;20863;-65
2023/11/16 08:11:20;;;;;;;4.20;1.20;;;21.40;95.20;;;;;;5010675;28;20512;-65
2023/11/16 08:13:48;;;;;;;1.73;1.20;;;21.40;95.10;;;;;;5006035;28;20860;-65
2023/11/16 08:16:19;;;;;;;1.33;0.90;;;21.40;95.10;;;;;;5011325;28;20811;-64
2023/11/16 08:18:46;;;;;;;1.00;0.80;;;21.40;95.00;;;;;;5017399;28;20449;-65
2023/11/16 08:21:13;;;;;;;1.20;1.00;;;21.40;94.90;;;;;;5016366;28;21029;-65
2023/11/16 08:23:44;;;;;;;1.50;0.80;;;21.40;94.90;;;;;;5022501;28;20453;-64
2023/11/16 08:26:12;;;;;;;1.20;1.00;;;21.40;94.80;;;;;;5015391;28;20769;-65
2023/11/16 08:28:41;;;;;;;0.90;0.70;;;21.50;94.80;;;;;;5018463;28;20466;-65
2023/11/16 08:31:08;;;;;;;1.00;0.80;;;21.50;94.80;;;;;;5004499;28;21932;-63
2023/11/16 08:33:35;;;;;;;1.47;0.90;;;21.50;94.70;;;;;;5010328;28;20463;-64
2023/11/16 08:36:03;;;;;;;1.57;0.80;;;21.50;94.70;;;;;;5011966;28;20502;-62
2023/11/16 08:38:29;;;;;;;1.13;0.90;;;21.70;94.70;;;;;;5005994;28;20466;-64
2023/11/16 08:40:59;;;;;;;0.90;0.77;;;21.50;94.60;;;;;;5019571;28;20509;-65
2023/11/16 08:43:27;;;;;;;1.30;1.20;;;21.60;94.50;;;;;;5018121;28;20557;-66
2023/11/16 08:45:55;;;;;;;1.20;0.90;;;21.60;94.50;;;;;;5015115;28;20899;-62
2023/11/16 08:48:30;;;;;;;1.60;1.17;;;21.60;94.50;;;;;;5011055;28;20470;-63
2023/11/16 08:50:58;;;;;;;1.80;0.83;;;21.60;94.40;;;;;;5009279;28;21153;-64
2023/11/16 08:53:27;;;;;;;1.20;0.90;;;21.60;94.40;;;;;;5006318;28;20463;-64
2023/11/16 08:55:58;;;;;;;0.90;0.80;;;21.60;94.30;;;;;;5005934;28;20570;-63
2023/11/16 08:58:30;;;;;;;2.60;0.97;;;21.60;94.30;;;;;;5016364;28;20465;-65
2023/11/16 09:00:58;;;;;;;1.27;0.83;;;21.60;94.20;;;;;;5004723;28;20569;-64
2023/11/16 09:03:27;;;;;;;1.50;0.90;;;21.60;94.20;;;;;;5015832;28;20545;-62
2023/11/16 09:05:54;;;;;;;1.30;1.00;;;21.60;94.20;;;;;;5013661;28;20981;-65
2023/11/16 09:08:23;;;;;;;1.53;0.90;;;21.60;94.10;;;;;;5012566;28;20449;-64
2023/11/16 09:10:51;;;;;;;1.50;1.00;;;21.70;94.10;;;;;;5016306;28;20462;-64
2023/11/16 09:13:19;;;;;;;1.10;0.90;;;21.70;94.10;;;;;;5007876;28;20460;-65
2023/11/16 09:15:47;;;;;;;1.07;0.93;;;21.70;94.00;;;;;;5009355;28;20461;-62
2023/11/16 09:18:15;;;;;;;1.63;1.00;;;21.60;94.00;;;;;;5003172;28;20469;-64
2023/11/16 09:20:46;;;;;;;1.60;0.93;;;21.60;93.90;;;;;;5008440;28;21057;-65
2023/11/16 09:23:13;;;;;;;1.87;1.23;;;21.70;94.00;;;;;;5005410;28;20828;-65
2023/11/16 09:25:40;;;;;;;1.63;1.10;;;21.70;93.90;;;;;;5006495;28;20538;-65
2023/11/16 09:28:07;;;;;;;1.43;1.07;;;21.60;93.80;;;;;;5007238;28;20462;-64
2023/11/16 09:30:39;;;;;;;1.33;1.20;;;21.70;93.90;;;;;;5003343;28;20463;-64
2023/11/16 09:33:08;;;;;;;1.60;1.07;;;21.70;93.80;;;;;;5004393;28;20947;-64
2023/11/16 09:35:35;;;;;;;1.37;1.10;;;21.70;93.80;;;;;;4998634;28;20465;-64
2023/11/16 09:38:08;;;;;;;2.77;1.23;;;21.70;93.80;;;;;;5004179;28;20469;-64
2023/11/16 09:40:35;;;;;;;1.90;1.23;;;21.70;93.80;;;;;;5006640;28;20822;-66
2023/11/16 09:43:16;;;;;;;1.30;1.20;;;21.70;93.70;;;;;;5010736;28;20466;-63
2023/11/16 09:45:47;;;;;;;3.57;1.73;;;21.70;93.70;;;;;;5004975;28;20552;-66
2023/11/16 09:48:15;;;;;;;1.60;1.30;;;21.70;93.20;;;;;;5009741;28;20492;-64
2023/11/16 09:50:44;;;;;;;4.10;1.83;;;21.60;93.40;;;;;;5004179;28;20468;-62
2023/11/16 09:53:16;;;;;;;5.03;2.03;;;21.70;93.30;;;;;;5012290;28;20577;-65
2023/11/16 09:55:46;;;;;;;4.90;1.87;;;21.60;93.30;;;;;;5010323;28;20780;-65
2023/11/16 09:58:17;;;;;;;2.17;1.80;;;21.60;93.30;;;;;;5008518;28;20447;-66
2023/11/16 10:00:48;;;;;;;1.93;1.23;;;21.60;93.20;;;;;;5005225;28;20605;-68
2023/11/16 10:03:22;;;;;;;2.03;1.20;;;21.60;93.30;;;;;;5005405;28;20462;-66
2023/11/16 10:05:53;;;;;;;2.47;1.43;;;21.70;93.30;;;;;;5008873;28;20458;-68
2023/11/16 10:08:20;;;;;;;6.00;1.30;;;21.70;93.30;;;;;;5006075;28;20454;-66
2023/11/16 10:10:57;;;;;;;1.40;1.27;;;21.70;93.70;;;;;;5016159;28;20471;-65
2023/11/16 10:13:24;;;;;;;1.90;1.20;;;21.70;93.40;;;;;;5019470;28;20462;-68
2023/11/16 10:15:53;;;;;;;10.83;1.97;;;21.70;93.40;;;;;;5012234;28;20515;-67
2023/11/16 10:18:21;;;;;;;2.17;1.40;;;21.70;93.40;;;;;;5012789;28;20455;-65
2023/11/16 10:20:48;;;;;;;1.77;1.43;;;21.60;93.40;;;;;;5011456;28;21137;-66
2023/11/16 10:23:15;;;;;;;2.17;1.10;;;21.70;93.40;;;;;;5010872;28;20472;-67
2023/11/16 10:25:42;;;;;;;1.73;1.20;;;21.70;93.40;;;;;;5007303;28;20592;-68
2023/11/16 10:28:19;;;;;;;1.67;1.33;;;21.70;93.50;;;;;;5011782;28;20468;-69
2023/11/16 10:30:50;;;;;;;1.53;1.10;;;21.70;93.50;;;;;;5013217;28;20446;-65
2023/11/16 10:33:20;;;;;;;2.27;1.60;;;21.70;93.50;;;;;;5009722;28;20564;-64
2023/11/16 10:35:48;;;;;;;1.63;1.23;;;21.70;93.50;;;;;;5013866;28;20524;-68
2023/11/16 10:38:16;;;;;;;1.73;1.23;;;21.70;93.50;;;;;;5012053;28;21274;-64
2023/11/16 10:40:44;;;;;;;2.23;1.33;;;21.70;93.50;;;;;;5009716;28;20874;-66
2023/11/16 10:43:12;;;;;;;1.57;0.97;;;21.70;93.50;;;;;;5012467;28;20474;-68
2023/11/16 10:45:42;;;;;;;1.43;1.03;;;21.80;93.60;;;;;;5011879;28;20461;-65
2023/11/16 10:48:12;;;;;;;1.53;1.00;;;21.70;93.50;;;;;;5009621;28;21289;-68
2023/11/16 10:50:42;;;;;;;1.83;1.17;;;21.70;93.60;;;;;;5008247;28;21063;-63
2023/11/16 10:53:16;;;;;;;1.73;1.50;;;21.70;93.60;;;;;;5015474;28;20528;-64
2023/11/16 10:55:45;;;;;;;1.77;1.03;;;21.80;93.70;;;;;;5013311;28;20591;-67
2023/11/16 10:58:12;;;;;;;1.50;1.33;;;21.70;93.60;;;;;;5007585;28;20486;-66
2023/11/16 11:00:41;;;;;;;1.67;1.23;;;21.70;93.60;;;;;;5011124;28;21363;-64
2023/11/16 11:03:10;;;;;;;1.40;1.23;;;21.70;93.60;;;;;;5014839;28;20818;-66
2023/11/16 11:05:41;;;;;;;1.80;1.40;;;21.70;93.60;;;;;;5012397;28;20464;-64
2023/11/16 11:08:10;;;;;;;1.90;1.57;;;21.70;93.70;;;;;;5020706;28;20481;-67
2023/11/16 11:10:41;;;;;;;1.60;1.10;;;21.70;93.60;;;;;;5015965;28;20540;-69
2023/11/16 11:13:08;;;;;;;1.60;1.00;;;21.70;93.60;;;;;;5008407;28;20473;-63
2023/11/16 11:15:36;;;;;;;1.40;1.20;;;21.60;93.60;;;;;;5009924;28;20559;-64
2023/11/16 11:18:04;;;;;;;1.40;1.03;;;21.70;93.60;;;;;;5016559;28;20470;-65
2023/11/16 11:20:36;;;;;;;1.37;1.10;;;21.70;93.60;;;;;;5007559;28;20481;-66
2023/11/16 11:23:09;;;;;;;1.80;1.30;;;21.70;93.60;;;;;;4996493;28;20458;-65
2023/11/16 11:25:41;;;;;;;2.60;1.30;;;21.70;93.60;;;;;;5008018;28;20458;-67
2023/11/16 11:28:08;;;;;;;1.97;1.37;;;21.80;93.70;;;;;;5010339;28;20467;-68
2023/11/16 11:30:37;;;;;;;1.80;1.27;;;21.70;93.70;;;;;;5010813;28;20493;-68
2023/11/16 11:33:14;;;;;;;1.67;1.20;;;21.70;93.80;;;;;;5004476;28;20458;-66
2023/11/16 11:35:48;;;;;;;1.20;1.10;;;21.70;93.80;;;;;;5002374;28;20989;-68
2023/11/16 11:38:19;;;;;;;1.93;1.53;;;21.70;93.80;;;;;;5012559;28;20460;-65
2023/11/16 11:40:48;;;;;;;1.40;1.30;;;21.70;93.80;;;;;;5011233;28;20993;-66
2023/11/16 11:43:24;;;;;;;1.77;1.13;;;21.60;93.80;;;;;;5008763;28;20463;-64
2023/11/16 11:45:52;;;;;;;1.50;1.20;;;21.70;93.90;;;;;;5010285;28;20458;-64
2023/11/16 11:48:22;;;;;;;1.63;1.40;;;21.60;93.80;;;;;;5003010;28;20466;-65
2023/11/16 11:50:52;;;;;;;1.90;1.10;;;21.70;94.00;;;;;;5005628;28;20466;-62
2023/11/16 11:53:26;;;;;;;1.30;1.07;;;21.70;94.10;;;;;;5005565;28;20459;-63
2023/11/16 11:55:53;;;;;;;2.43;1.37;;;21.70;94.20;;;;;;5006703;28;21043;-64
2023/11/16 11:58:20;;;;;;;1.90;1.80;;;21.70;94.30;;;;;;5008058;28;20462;-68
2023/11/16 12:00:48;;;;;;;2.37;1.57;;;21.70;94.40;;;;;;5010134;28;20484;-66
2023/11/16 12:03:15;;;;;;;2.03;1.37;;;21.80;94.50;;;;;;5010264;28;20461;-65
2023/11/16 12:05:42;;;;;;;1.70;1.30;;;21.80;94.60;;;;;;5012975;28;20464;-63
2023/11/16 12:08:10;;;;;;;2.70;1.50;;;21.80;94.30;;;;;;5013271;28;20484;-67
2023/11/16 12:10:39;;;;;;;2.80;1.30;;;21.80;94.30;;;;;;5010267;28;20470;-65
2023/11/16 12:13:07;;;;;;;1.37;1.27;;;21.90;94.30;;;;;;5011388;28;21009;-63
2023/11/16 12:15:34;;;;;;;2.00;1.50;;;21.90;94.30;;;;;;5016538;28;20462;-63
2023/11/16 12:18:06;;;;;;;1.73;1.30;;;21.90;94.70;;;;;;5018582;28;20976;-61
2023/11/16 12:20:34;;;;;;;1.73;1.40;;;21.90;94.40;;;;;;5014997;28;21061;-63
2023/11/16 12:23:02;;;;;;;1.87;1.37;;;22.00;94.40;;;;;;5013831;28;20547;-64
2023/11/16 12:25:29;;;;;;;1.40;1.30;;;22.00;94.40;;;;;;5018351;28;20458;-62
2023/11/16 12:28:00;;;;;;;2.77;1.67;;;22.00;94.40;;;;;;5018616;28;20462;-65
2023/11/16 12:30:27;;;;;;;1.87;1.20;;;22.00;94.40;;;;;;5010485;28;20990;-64
2023/11/16 12:32:54;;;;;;;1.20;1.10;;;22.00;94.30;;;;;;5003725;28;20458;-66
2023/11/16 12:35:21;;;;;;;1.13;1.00;;;22.00;94.60;;;;;;5010537;28;20512;-65
2023/11/16 12:37:50;;;;;;;1.43;1.33;;;22.00;94.20;;;;;;5010653;28;20461;-66
2023/11/16 12:40:18;;;;;;;1.40;1.30;;;22.00;94.10;;;;;;5012809;28;20466;-64
2023/11/16 12:42:46;;;;;;;1.60;1.30;;;22.10;94.10;;;;;;5012456;28;20592;-64
2023/11/16 12:45:14;;;;;;;2.93;1.50;;;22.00;94.00;;;;;;5015769;28;20467;-62
2023/11/16 12:47:41;;;;;;;2.43;1.47;;;22.00;93.90;;;;;;5008230;28;21031;-63
2023/11/16 12:50:09;;;;;;;2.60;1.47;;;22.00;93.90;;;;;;5008540;28;20472;-64
2023/11/16 12:52:36;;;;;;;1.70;1.40;;;22.00;93.90;;;;;;5018269;28;20470;-64